Jeffersonville, Pennsylvania
Current Conditions -  °F | °C
As of 10:15 AM on Monday 24 Nov 2014 (Local Time) from KLOM Reporting Station
Overcast Overcast  
Wind Chill: 20°   Ceiling: 2500
Heat Index: 20°   Visibility: 10mi
Dew Point: 16°   Wind: 12mph
Humidity: 78%   Direction: 210°SSW
Pressure: 29.67"   Gusts: NA
Location:  40.1271°N, 75.3202°W
Report Text: KLOM 241515Z AUTO 21010KT 10SM SCT020 BKN025 OVC031 20/16 A2967 RMK AO1
Loading
Personal Weather Stations






























Interactive Weather Map New forecast layout! Learn more

10-Day Weather Forecast

Advertisements
Track Severe Weather on mobile